PHMK Airport (Molokai) Information

FAA: MKK - ICAO: PHMK

PHMK Airport Location

State Hawaii
County Maui
City Kaunakakai
PHMK Airport is 6 miles northwest of Kaunakakai, HI.
Latitude 21-09-10.3890N
Longitude 157-05-46.5220W
Elevation 453ft

PHMK Airport METARs

METAR PHMK 200354Z 02007KT 10SM FEW030 24/17 A3004 RMK AO2 SLP175 T02440172
Altimeter 30.04"
Temperature 24.4°C (75.9°F)
Wind 20° at 7KT
Clouds few at 3,000ft
Visibility 10.0mi
Time observed: 2021-10-20T03:54:00Z

PHMK Airport Details

Status Operational
Activation July 1946
Ownership Public
Usage Public
Chart HAWAIIAN ISLANDS
ATC on-site Yes
Beacon schedule sunset-sunrise
Beacon color clear green

PHMK Airport Contacts

Owner HAWAII STATE AIRPORTS DIV
Owner address HONOLULU INTL ARPT, HONOLULU, HI 96819
Owner phone 808-836-6432
Manager RUFUS CROWE
Manager address P.O. BOX 7688 SVRB, SAIPAN, MP 96950
Manager phone 670-234-1304

PHMK Airport (Molokai) Radio Frequencies

PHMK (Airport) Radio Frequencies

UNICOM N/A
Common traffic advisory frequency (CTAF) 125.7